createdAt,value
2022-12-04T00:01:04.906Z,51
2022-12-04T00:16:05.495Z,52
2022-12-04T00:31:05.685Z,50
2022-12-04T00:46:05.733Z,49
2022-12-04T01:01:05.411Z,50
2022-12-04T01:16:05.622Z,48
2022-12-04T01:31:04.751Z,49
2022-12-04T01:46:04.600Z,48
2022-12-04T02:01:08.372Z,47
2022-12-04T02:16:04.939Z,44
2022-12-04T02:31:04.959Z,41
2022-12-04T02:46:04.847Z,37
2022-12-04T03:01:05.382Z,36
2022-12-04T03:16:04.835Z,38
2022-12-04T03:31:05.022Z,38
2022-12-04T03:46:05.232Z,38
2022-12-04T04:01:05.313Z,37
2022-12-04T04:16:05.475Z,34
2022-12-04T04:31:05.599Z,34
2022-12-04T04:46:04.823Z,33
2022-12-04T05:01:04.879Z,35
2022-12-04T05:16:05.557Z,34
2022-12-04T05:31:05.274Z,38
2022-12-04T05:46:05.031Z,35
2022-12-04T06:01:05.180Z,42
2022-12-04T06:16:05.357Z,39
2022-12-04T06:31:04.687Z,42
2022-12-04T06:46:04.906Z,44
2022-12-04T07:01:05.489Z,54
2022-12-04T07:16:05.951Z,32
2022-12-04T07:31:05.058Z,35
2022-12-04T07:46:05.267Z,42
2022-12-04T08:01:05.137Z,44
2022-12-04T08:16:05.094Z,33
2022-12-04T08:31:05.140Z,35
2022-12-04T08:46:05.407Z,42
2022-12-04T09:01:05.548Z,41
2022-12-04T09:16:05.134Z,42
2022-12-04T09:31:05.695Z,40
2022-12-04T09:46:04.868Z,37
2022-12-04T10:01:05.685Z,39
2022-12-04T10:16:05.288Z,35
2022-12-04T10:31:05.526Z,34
2022-12-04T10:46:04.853Z,33
2022-12-04T11:01:05.398Z,32
2022-12-04T11:16:05.327Z,34
2022-12-04T11:31:05.386Z,29
2022-12-04T11:46:05.872Z,29
2022-12-04T12:01:06.650Z,24
2022-12-04T12:16:05.114Z,25
2022-12-04T12:31:06.096Z,27
2022-12-04T12:46:04.695Z,25
2022-12-04T13:01:04.908Z,24
2022-12-04T13:16:04.259Z,24
2022-12-04T13:31:04.761Z,24
2022-12-04T13:46:05.786Z,31
2022-12-04T14:01:05.503Z,34
2022-12-04T14:16:05.378Z,36
2022-12-04T14:31:05.433Z,40
2022-12-04T14:46:05.723Z,41
2022-12-04T15:01:05.034Z,47
2022-12-04T15:16:05.556Z,46
2022-12-04T15:31:05.146Z,44
2022-12-04T15:46:05.270Z,47
2022-12-04T16:01:05.297Z,53
2022-12-04T16:16:04.812Z,49
2022-12-04T16:31:04.981Z,44
2022-12-04T16:46:05.187Z,53
2022-12-04T17:01:04.978Z,52
2022-12-04T17:16:05.364Z,51
2022-12-04T17:31:05.148Z,53
2022-12-04T17:46:05.000Z,45
2022-12-04T18:01:05.048Z,48
2022-12-04T18:16:05.116Z,46
2022-12-04T18:31:05.737Z,49
2022-12-04T18:46:07.509Z,54
2022-12-04T19:01:04.944Z,49
2022-12-04T19:16:05.285Z,44
2022-12-04T19:31:05.287Z,45
2022-12-04T19:46:04.980Z,49
2022-12-04T20:01:04.976Z,47
2022-12-04T20:16:05.167Z,52
2022-12-04T20:31:05.139Z,46
2022-12-04T20:46:04.990Z,46
2022-12-04T21:01:04.960Z,42
2022-12-04T21:16:05.405Z,40
2022-12-04T21:31:05.061Z,43
2022-12-04T21:46:09.145Z,51
2022-12-04T22:01:04.986Z,58
2022-12-04T22:16:04.647Z,49
2022-12-04T22:31:04.946Z,44
2022-12-04T22:46:05.082Z,43
2022-12-04T23:01:05.783Z,42
2022-12-04T23:16:07.892Z,43
2022-12-04T23:31:05.466Z,39
2022-12-04T23:46:10.561Z,41
